Southern Angel — H8TU — position and weather

sailwx.info

Track history (hours):
 
Tides and Currents Weather Stations Pressure Air Temp Water Temp Dewpoint Dewpoint Depression Visibility Wind Speed Wind Dir Waves Ship Positions

Southern Angel

Last reported at 2018-Jul-20 17:22 UTC. Time now 2018-Jul-22 16:38 UTC.
Position N 34°24' E 134°20'.

Length 84 m; draft 6.3 m.

Type: Cargo ship. MMSI: 354587000.

Date/timePositionNaut miles runAvg speedWind from/ knotsBaromVisibWave heightAir tempDewpointWater temp
2018-Jul-20 17:22N 34°24' E 134°20'910.5
2018-Jul-20 16:31N 34°28' E 134°30'0 9.9
2018-Jul-20 16:30N 34°28' E 134°30'510.5
2018-Jul-20 15:59N 34°30' E 134°36'510.5
2018-Jul-20 15:30N 34°32' E 134°42'510.5
2018-Jul-20 15:00N 34°34' E 134°48'611.0
2018-Jul-20 14:26N 34°36' E 134°55'510.2
2018-Jul-20 13:58N 34°38' E 135°01'4 9.4
2018-Jul-20 13:30N 34°35' E 135°05'5 9.9
2018-Jul-20 13:00N 34°30' E 135°04'510.7
2018-Jul-20 12:30N 34°25' E 135°02'510.5
2018-Jul-20 12:00N 34°20' E 135°01'5 9.5
2018-Jul-20 11:30N 34°16' E 134°59'510.0
2018-Jul-20 11:00N 34°11' E 135°00'611.0
2018-Jul-20 10:30N 34°05' E 135°01'611.3
2018-Jul-20 10:00N 33°59' E 135°02'611.1
2018-Jul-20 09:30N 33°54' E 135°02'510.3
2018-Jul-20 08:59N 33°50' E 135°06'  
2018-Jul-13 17:55N 35°44' E 140°57'6112.3
2018-Jul-13 12:56N 34°59' E 140°08'1711.9
2018-Jul-13 11:30N 34°52' E 139°48'714.1
2018-Jul-13 11:00N 34°59' E 139°44'612.2
2018-Jul-13 10:30N 35°05' E 139°44'612.0
2018-Jul-13 10:00N 35°11' E 139°46'611.8
2018-Jul-13 09:30N 35°16' E 139°45'612.1
2018-Jul-13 09:00N 35°22' E 139°42'611.2
2018-Jul-13 08:30N 35°26' E 139°46'611.5
2018-Jul-13 08:00N 35°30' E 139°51'610.9
2018-Jul-13 07:30N 35°35' E 139°56'4 0.4
2018-Jul-12 21:49N 35°38' E 139°59'2 4.0
2018-Jul-12 21:21N 35°36' E 139°58'0 0.0
2018-Jul-12 19:42N 35°36' E 139°58'0 0.0
2018-Jul-12 07:42N 35°36' E 139°58'0 0.0
2018-Jul-12 06:27N 35°36' E 139°58'6 1.8
2018-Jul-12 02:51N 35°31' E 139°53'410.5
2018-Jul-12 02:28N 35°28' E 139°50'510.5
2018-Jul-12 02:00N 35°24' E 139°46'510.9
2018-Jul-12 01:31N 35°19' E 139°44'510.0
2018-Jul-12 01:00N 35°15' E 139°47'510.1
2018-Jul-12 00:30N 35°10' E 139°47'510.0
2018-Jul-12 00:00N 35°05' E 139°45'510.7
2018-Jul-11 23:30N 35°01' E 139°40'611.6
2018-Jul-11 23:00N 34°58' E 139°34'612.2
2018-Jul-11 22:29N 34°55' E 139°28'  
Track history (hours):
 
Tides and Currents Weather Stations Pressure Air Temp Water Temp Dewpoint Dewpoint Depression Visibility Wind Speed Wind Dir Waves Ship Positions

Southern Angel

Last reported at 2018-Jul-20 17:22 UTC. Time now 2018-Jul-22 16:38 UTC.
Position N 34°24' E 134°20'.

Length 84 m; draft 6.3 m.

Type: Cargo ship. MMSI: 354587000.

Date/timePositionNaut miles runAvg speedWind from/ knotsBaromVisibWave heightAir tempDewpointWater temp
2018-Jul-20 17:22N 34°24' E 134°20'910.5
2018-Jul-20 16:31N 34°28' E 134°30'0 9.9
2018-Jul-20 16:30N 34°28' E 134°30'510.5
2018-Jul-20 15:59N 34°30' E 134°36'510.5
2018-Jul-20 15:30N 34°32' E 134°42'510.5
2018-Jul-20 15:00N 34°34' E 134°48'611.0
2018-Jul-20 14:26N 34°36' E 134°55'510.2
2018-Jul-20 13:58N 34°38' E 135°01'4 9.4
2018-Jul-20 13:30N 34°35' E 135°05'5 9.9
2018-Jul-20 13:00N 34°30' E 135°04'510.7
2018-Jul-20 12:30N 34°25' E 135°02'510.5
2018-Jul-20 12:00N 34°20' E 135°01'5 9.5
2018-Jul-20 11:30N 34°16' E 134°59'510.0
2018-Jul-20 11:00N 34°11' E 135°00'611.0
2018-Jul-20 10:30N 34°05' E 135°01'611.3
2018-Jul-20 10:00N 33°59' E 135°02'611.1
2018-Jul-20 09:30N 33°54' E 135°02'510.3
2018-Jul-20 08:59N 33°50' E 135°06'  
2018-Jul-13 17:55N 35°44' E 140°57'6112.3
2018-Jul-13 12:56N 34°59' E 140°08'1711.9
2018-Jul-13 11:30N 34°52' E 139°48'714.1
2018-Jul-13 11:00N 34°59' E 139°44'612.2
2018-Jul-13 10:30N 35°05' E 139°44'612.0
2018-Jul-13 10:00N 35°11' E 139°46'611.8
2018-Jul-13 09:30N 35°16' E 139°45'612.1
2018-Jul-13 09:00N 35°22' E 139°42'611.2
2018-Jul-13 08:30N 35°26' E 139°46'611.5
2018-Jul-13 08:00N 35°30' E 139°51'610.9
2018-Jul-13 07:30N 35°35' E 139°56'4 0.4
2018-Jul-12 21:49N 35°38' E 139°59'2 4.0
2018-Jul-12 21:21N 35°36' E 139°58'0 0.0
2018-Jul-12 19:42N 35°36' E 139°58'0 0.0
2018-Jul-12 07:42N 35°36' E 139°58'0 0.0
2018-Jul-12 06:27N 35°36' E 139°58'6 1.8
2018-Jul-12 02:51N 35°31' E 139°53'410.5
2018-Jul-12 02:28N 35°28' E 139°50'510.5
2018-Jul-12 02:00N 35°24' E 139°46'510.9
2018-Jul-12 01:31N 35°19' E 139°44'510.0
2018-Jul-12 01:00N 35°15' E 139°47'510.1
2018-Jul-12 00:30N 35°10' E 139°47'510.0
2018-Jul-12 00:00N 35°05' E 139°45'510.7
2018-Jul-11 23:30N 35°01' E 139°40'611.6
2018-Jul-11 23:00N 34°58' E 139°34'612.2
2018-Jul-11 22:29N 34°55' E 139°28'  

Dump ship's entire track history